Time;durP1;ratioP1;P1;durP2;ratioP2;P2;SDS_P1;SDS_P2;PMS_P1;PMS_P2;Temp;Humidity;BMP_temperature;BMP_pressure;BME280_temperature;BME280_humidity;BME280_pressure;Samples;Min_cycle;Max_cycle;Signal;HPM_P1;HPM_P2
2022/10/07 00:03:22;;;;;;;0.68;0.22;;;;;;;19.82;43.66;102714.16;16132959;19;129131;-62
2022/10/07 00:08:51;;;;;;;1.50;0.45;;;;;;;19.81;44.12;102701.38;16133161;19;130125;-62
2022/10/07 00:14:13;;;;;;;0.70;0.30;;;;;;;19.78;43.80;102702.63;16131542;19;133759;-62
2022/10/07 00:19:34;;;;;;;0.63;0.30;;;;;;;19.76;44.20;102692.78;16131981;19;130067;-62
2022/10/07 00:24:56;;;;;;;1.27;0.30;;;;;;;19.75;44.28;102685.53;16131898;19;129706;-62
2022/10/07 00:30:18;;;;;;;0.43;0.25;;;;;;;19.71;43.82;102678.69;16131203;19;133652;-62
2022/10/07 00:35:39;;;;;;;0.60;0.25;;;;;;;19.71;43.96;102673.13;16132949;19;129572;-63
2022/10/07 00:41:01;;;;;;;1.52;0.50;;;;;;;19.68;44.53;102664.19;16132999;19;130536;-63
2022/10/07 00:46:23;;;;;;;0.65;0.30;;;;;;;19.65;43.97;102659.03;16127796;19;129487;-62
2022/10/07 00:51:45;;;;;;;0.60;0.35;;;;;;;19.64;43.95;102667.56;16130164;19;129167;-62
2022/10/07 00:57:07;;;;;;;0.63;0.20;;;;;;;19.63;44.22;102668.66;16130747;19;131043;-62
2022/10/07 01:02:29;;;;;;;1.23;0.40;;;;;;;19.59;44.13;102654.31;16131016;19;129541;-63
2022/10/07 01:07:51;;;;;;;1.48;0.45;;;;;;;19.59;44.24;102653.47;16127861;19;129471;-62
2022/10/07 01:13:33;;;;;;;0.57;0.35;;;;;;;19.59;44.26;102637.66;16123649;19;129347;-62
2022/10/07 01:19:30;;;;;;;0.65;0.30;;;;;;;19.58;44.26;102632.31;16131362;19;129521;-63
2022/10/07 01:25:19;;;;;;;0.50;0.40;;;;;;;19.55;44.18;102630.84;16127708;19;129196;-62
2022/10/07 01:30:47;;;;;;;0.70;0.30;;;;;;;19.53;44.44;102619.09;16128235;19;129336;-62
2022/10/07 01:36:16;;;;;;;1.63;0.60;;;;;;;19.52;44.46;102611.81;16126209;19;129355;-62
2022/10/07 01:41:39;;;;;;;0.20;0.10;;;;;;;19.51;44.04;102607.34;16132124;19;135146;-61
2022/10/07 01:47:01;;;;;;;0.90;0.32;;;;;;;19.51;44.01;102601.78;16130003;19;129045;-62
2022/10/07 01:52:39;;;;;;;1.60;0.47;;;;;;;19.50;44.02;102594.50;16130211;19;130599;-62
2022/10/07 01:58:19;;;;;;;0.55;0.30;;;;;;;19.49;44.23;102579.78;16128729;19;129421;-62
2022/10/07 02:04:08;;;;;;;2.58;0.40;;;;;;;19.48;44.36;102574.44;16130776;19;129457;-62
2022/10/07 02:09:42;;;;;;;0.85;0.35;;;;;;;19.47;44.62;102564.41;16128235;19;129517;-62
2022/10/07 02:15:12;;;;;;;0.65;0.30;;;;;;;19.46;44.34;102557.13;16127386;19;129461;-62
2022/10/07 02:20:37;;;;;;;0.35;0.20;;;;;;;19.45;44.56;102553.53;16124187;19;129531;-63
2022/10/07 02:26:01;;;;;;;0.32;0.20;;;;;;;19.43;44.20;102539.00;16126082;19;129810;-62
2022/10/07 02:31:29;;;;;;;0.20;0.20;;;;;;;19.43;44.19;102543.72;16124975;19;129103;-62
2022/10/07 02:36:59;;;;;;;1.02;0.47;;;;;;;19.43;44.51;102527.88;16124671;19;129263;-62
2022/10/07 02:42:32;;;;;;;1.77;0.52;;;;;;;19.43;44.15;102527.06;16124288;19;129317;-63
2022/10/07 02:48:00;;;;;;;0.77;0.40;;;;;;;19.42;44.48;102514.25;16121100;19;129131;-62
2022/10/07 02:53:26;;;;;;;1.15;0.30;;;;;;;19.41;44.65;102509.75;16123933;19;129661;-62
2022/10/07 02:58:49;;;;;;;1.15;0.38;;;;;;;19.41;44.49;102506.97;16121216;19;129808;-62
2022/10/07 03:04:12;;;;;;;0.52;0.30;;;;;;;19.38;44.25;102506.34;16120158;19;129496;-63
2022/10/07 03:09:34;;;;;;;0.73;0.40;;;;;;;19.38;44.46;102502.72;16125561;19;129890;-63
2022/10/07 03:14:55;;;;;;;1.23;0.40;;;;;;;19.37;44.32;102493.53;16126374;19;129269;-66
2022/10/07 03:20:17;;;;;;;0.98;0.30;;;;;;;19.37;44.19;102492.69;16121888;19;129951;-63
2022/10/07 03:25:39;;;;;;;0.43;0.30;;;;;;;19.35;44.46;102487.31;16125847;19;130066;-63
2022/10/07 03:31:06;;;;;;;1.20;0.50;;;;;;;19.36;44.23;102483.47;16132527;19;129357;-62
2022/10/07 03:36:28;;;;;;;0.88;0.38;;;;;;;19.34;44.67;102474.50;16138155;19;130025;-62
2022/10/07 03:41:50;;;;;;;0.85;0.40;;;;;;;19.34;44.26;102477.28;16137230;19;129399;-62
2022/10/07 03:47:12;;;;;;;0.65;0.30;;;;;;;19.33;44.55;102470.03;16135906;19;129473;-63
2022/10/07 03:52:35;;;;;;;0.45;0.35;;;;;;;19.32;44.38;102468.31;16136786;19;129431;-63
2022/10/07 03:57:57;;;;;;;0.32;0.20;;;;;;;19.31;44.22;102463.00;16136051;19;130955;-63
2022/10/07 04:03:20;;;;;;;2.88;0.40;;;;;;;19.29;44.44;102460.44;16131894;19;129723;-62
2022/10/07 04:08:42;;;;;;;0.60;0.30;;;;;;;19.29;44.38;102457.66;16134209;19;129914;-62
2022/10/07 04:14:04;;;;;;;0.73;0.52;;;;;;;19.27;44.56;102448.69;16133493;19;129642;-62
2022/10/07 04:19:25;;;;;;;1.48;0.50;;;;;;;19.27;44.58;102450.59;16132738;19;130182;-63
2022/10/07 04:25:32;;;;;;;1.10;0.45;;;;;;;19.26;44.39;102449.75;16132697;19;129017;-62
2022/10/07 04:30:33;;;;;;;0.68;0.22;;;;;;;19.25;44.62;102450.81;16134463;19;130747;-63
2022/10/07 04:35:55;;;;;;;0.60;0.28;;;;;;;19.24;44.27;102446.34;16133633;19;129538;-64
2022/10/07 04:41:17;;;;;;;1.88;0.50;;;;;;;19.24;44.47;102439.97;16132337;19;129304;-62
2022/10/07 04:46:39;;;;;;;1.13;0.40;;;;;;;19.23;44.37;102441.84;16132537;19;129573;-63
2022/10/07 04:52:01;;;;;;;0.75;0.45;;;;;;;19.22;44.65;102431.81;16133795;19;129497;-63
2022/10/07 04:57:23;;;;;;;1.05;0.30;;;;;;;19.21;44.21;102430.13;16130830;19;130901;-63
2022/10/07 05:02:49;;;;;;;1.35;0.55;;;;;;;19.20;44.65;102423.69;16127911;19;128916;-62
2022/10/07 05:08:12;;;;;;;5.88;0.40;;;;;;;19.18;44.42;102424.97;16128996;19;129438;-63
2022/10/07 05:13:37;;;;;;;1.52;0.40;;;;;;;19.22;44.27;102429.06;16130342;19;129640;-62
2022/10/07 05:18:58;;;;;;;0.80;0.40;;;;;;;19.23;44.34;102427.97;16127500;19;129204;-58
2022/10/07 05:24:20;;;;;;;1.95;0.63;;;;;;;19.25;44.19;102420.31;16125134;19;129346;-60
2022/10/07 05:29:42;;;;;;;2.60;0.73;;;;;;;19.28;44.41;102414.34;16126479;19;129643;-61
2022/10/07 05:35:04;;;;;;;3.80;0.70;;;;;;;19.29;44.06;102418.81;16125881;19;130077;-60
2022/10/07 05:40:27;;;;;;;1.23;0.70;;;;;;;19.29;44.24;102415.19;16126206;19;129403;-70
2022/10/07 05:46:05;;;;;;;3.70;0.70;;;;;;;19.29;44.06;102410.50;16128603;19;129436;-70
2022/10/07 05:51:27;;;;;;;0.65;0.43;;;;;;;19.27;44.06;102406.22;16123696;19;129867;-65
2022/10/07 05:56:49;;;;;;;1.15;0.52;;;;;;;19.25;44.31;102408.38;16132325;19;129930;-60
2022/10/07 06:02:13;;;;;;;2.35;0.77;;;;;;;19.23;44.35;102397.47;16135479;19;129668;-60
2022/10/07 06:07:35;;;;;;;3.60;0.80;;;;;;;19.19;44.28;102405.34;16129739;19;130466;-60
2022/10/07 06:13:06;;;;;;;2.22;0.70;;;;;;;19.21;44.22;102399.59;16126290;19;130339;-60
2022/10/07 06:18:28;;;;;;;3.10;0.70;;;;;;;19.22;44.35;102393.84;16122669;19;129531;-60
2022/10/07 06:23:50;;;;;;;2.83;0.70;;;;;;;19.24;44.03;102388.06;16125957;19;129787;-59
2022/10/07 06:29:12;;;;;;;1.00;0.50;;;;;;;19.27;44.10;102390.44;16125738;19;129724;-59
2022/10/07 06:34:34;;;;;;;4.63;0.70;;;;;;;19.33;44.09;102389.56;16122884;19;129433;-60
2022/10/07 06:39:56;;;;;;;1.48;0.60;;;;;;;19.37;44.23;102385.28;16121773;19;130038;-59
2022/10/07 06:45:20;;;;;;;2.38;0.70;;;;;;;19.43;44.16;102396.59;16121466;19;129833;-59
2022/10/07 06:50:52;;;;;;;1.98;0.40;;;;;;;19.48;43.81;102385.69;16122457;19;129588;-59
2022/10/07 06:56:14;;;;;;;3.80;0.55;;;;;;;19.49;44.08;102387.41;16123888;19;129062;-60
2022/10/07 07:01:36;;;;;;;4.13;0.80;;;;;;;19.55;43.85;102392.09;16123834;19;129812;-60
2022/10/07 07:06:57;;;;;;;1.65;0.70;;;;;;;19.62;43.88;102392.09;16134187;19;129383;-60
2022/10/07 07:12:21;;;;;;;4.38;0.70;;;;;;;19.71;43.68;102401.00;16135060;19;130145;-60
2022/10/07 07:17:43;;;;;;;1.77;0.70;;;;;;;20.17;43.19;102386.16;16137020;19;131123;-61
2022/10/07 07:23:09;;;;;;;2.80;0.60;;;;;;;21.78;40.25;102396.00;16135157;19;129483;-61
2022/10/07 07:28:32;;;;;;;1.65;0.55;;;;;;;23.41;37.56;102389.72;16137893;19;130362;-61
2022/10/07 07:34:00;;;;;;;2.25;0.80;;;;;;;24.17;36.06;102388.91;16136643;19;129540;-61
2022/10/07 07:39:22;;;;;;;3.75;0.80;;;;;;;25.09;34.52;102369.28;16135942;19;130991;-59
2022/10/07 07:44:44;;;;;;;3.58;0.73;;;;;;;25.59;33.75;102375.97;16137622;19;129662;-59
2022/10/07 07:50:07;;;;;;;2.92;0.82;;;;;;;26.10;32.46;102367.31;16134526;19;130568;-60
2022/10/07 07:55:29;;;;;;;1.27;0.60;;;;;;;26.91;31.66;102371.25;16135617;19;129463;-59
2022/10/07 08:01:05;;;;;;;4.45;0.88;;;;;;;27.61;30.23;102371.16;16134533;19;129155;-60
2022/10/07 08:06:27;;;;;;;3.15;0.70;;;;;;;27.76;30.01;102366.72;16133450;19;129715;-60
2022/10/07 08:11:49;;;;;;;4.05;1.08;;;;;;;26.28;31.56;102356.91;16134350;19;129336;-60
2022/10/07 08:17:11;;;;;;;2.25;0.88;;;;;;;24.76;33.23;102357.81;16130775;19;129447;-59
2022/10/07 08:22:34;;;;;;;2.83;1.00;;;;;;;23.62;34.94;102372.41;16134625;19;133558;-60
2022/10/07 08:27:56;;;;;;;1.80;0.90;;;;;;;22.80;36.31;102360.06;16132436;19;129552;-60
2022/10/07 08:33:20;;;;;;;1.42;0.65;;;;;;;22.21;37.21;102346.81;16134041;19;131600;-59
2022/10/07 08:38:42;;;;;;;4.20;1.05;;;;;;;21.78;37.98;102343.09;16132054;19;129631;-60
2022/10/07 08:44:23;;;;;;;2.70;0.80;;;;;;;21.45;38.91;102335.91;16130189;19;129397;-60
2022/10/07 08:50:21;;;;;;;3.20;0.90;;;;;;;21.18;39.68;102338.97;16132278;19;129305;-61
2022/10/07 08:55:54;;;;;;;1.67;0.70;;;;;;;20.98;39.78;102341.13;16131962;19;129374;-59
2022/10/07 09:01:57;;;;;;;2.30;0.93;;;;;;;20.81;40.51;102321.38;16131912;19;130107;-59
2022/10/07 09:07:27;;;;;;;1.38;0.65;;;;;;;20.66;40.85;102316.97;16125478;19;129701;-59
2022/10/07 09:13:05;;;;;;;3.17;0.90;;;;;;;20.55;41.19;102301.88;16141422;19;129757;-59
2022/10/07 09:18:52;;;;;;;2.97;0.80;;;;;;;20.44;41.56;102306.22;16149678;19;129374;-59
2022/10/07 09:24:24;;;;;;;1.35;0.70;;;;;;;20.36;41.61;102291.75;16147324;19;129375;-60
2022/10/07 09:29:46;;;;;;;2.75;0.90;;;;;;;20.30;41.32;102296.28;16145517;19;129212;-62
2022/10/07 09:35:20;;;;;;;2.25;0.80;;;;;;;20.25;41.72;102294.19;16148663;19;129524;-61
2022/10/07 09:46:38;;;;;;;3.70;1.10;;;;;;;20.14;42.17;102283.78;16147976;19;130262;-61
2022/10/07 09:52:24;;;;;;;2.45;0.90;;;;;;;20.11;41.93;102281.44;16148103;19;129257;-61
2022/10/07 09:57:59;;;;;;;3.17;0.87;;;;;;;20.06;42.20;102267.38;16147000;19;130662;-63
2022/10/07 10:03:28;;;;;;;2.57;0.90;;;;;;;20.04;41.77;102264.81;16142906;19;129220;-61
2022/10/07 10:08:56;;;;;;;4.28;1.02;;;;;;;20.00;41.74;102260.75;16140458;19;130066;-61
2022/10/07 10:14:35;;;;;;;6.85;1.45;;;;;;;20.01;42.02;102256.06;16145703;19;129361;-61
2022/10/07 10:20:22;;;;;;;6.45;1.38;;;;;;;19.99;41.76;102245.16;16142580;19;130219;-61
2022/10/07 10:26:24;;;;;;;8.60;1.33;;;;;;;19.95;41.67;102228.06;16138416;19;129874;-60
2022/10/07 10:32:00;;;;;;;10.95;2.05;;;;;;;19.94;41.84;102220.81;16140295;19;129142;-61
2022/10/07 10:37:34;;;;;;;9.98;1.90;;;;;;;19.89;41.39;102220.66;16139716;19;129347;-61
2022/10/07 10:43:01;;;;;;;13.32;2.13;;;;;;;19.94;41.75;102215.25;16142622;19;129505;-61
2022/10/07 10:48:43;;;;;;;14.10;2.17;;;;;;;19.99;42.03;102215.47;16140881;19;129328;-61
2022/10/07 10:54:23;;;;;;;9.82;1.80;;;;;;;19.99;42.18;102203.50;16142220;19;130105;-61
2022/10/07 11:00:10;;;;;;;14.23;1.80;;;;;;;20.01;42.53;102194.97;16139475;19;130452;-61
2022/10/07 11:05:38;;;;;;;5.57;1.25;;;;;;;19.97;42.24;102186.22;16141680;19;129518;-61
2022/10/07 11:11:05;;;;;;;7.68;1.65;;;;;;;19.95;42.81;102183.63;16137434;19;129336;-61
2022/10/07 11:16:35;;;;;;;7.47;1.45;;;;;;;19.96;42.40;102179.78;16139711;19;129859;-60
2022/10/07 11:21:58;;;;;;;12.82;2.05;;;;;;;19.94;42.24;102168.03;16139722;19;129049;-60
2022/10/07 11:27:28;;;;;;;9.57;1.50;;;;;;;19.92;42.15;102159.13;16138975;19;128867;-60
2022/10/07 11:32:59;;;;;;;5.53;1.30;;;;;;;19.90;42.15;102147.38;16131563;19;130562;-60
2022/10/07 11:38:26;;;;;;;6.68;1.45;;;;;;;19.88;41.84;102130.06;16118664;19;130153;-61
2022/10/07 11:43:54;;;;;;;7.18;1.73;;;;;;;19.88;41.45;102126.47;16119089;19;132198;-60
2022/10/07 11:49:22;;;;;;;7.20;1.30;;;;;;;19.86;41.14;102115.56;16122109;19;130227;-60
2022/10/07 11:54:53;;;;;;;6.13;1.20;;;;;;;19.86;41.04;102100.84;16137329;19;129379;-60
2022/10/07 12:00:36;;;;;;;8.02;1.67;;;;;;;19.84;41.26;102099.13;16132409;19;129933;-61
2022/10/07 12:06:08;;;;;;;5.20;1.50;;;;;;;19.84;40.74;102078.84;16137322;19;129050;-61
2022/10/07 12:11:35;;;;;;;8.20;1.63;;;;;;;19.83;41.16;102066.03;16134388;19;131009;-62
2022/10/07 12:16:57;;;;;;;9.40;1.13;;;;;;;19.82;41.21;102058.75;16133951;19;129871;-62
2022/10/07 12:22:19;;;;;;;8.60;1.63;;;;;;;19.83;40.83;102060.47;16132885;19;129760;-62
2022/10/07 12:27:45;;;;;;;6.63;1.45;;;;;;;19.83;40.76;102043.81;16129238;19;130308;-62
2022/10/07 12:33:32;;;;;;;8.85;2.10;;;;;;;19.84;40.52;102028.84;16125880;19;131708;-62
2022/10/07 12:38:57;;;;;;;5.90;1.40;;;;;;;19.82;40.40;102017.09;16128579;19;131066;-62
2022/10/07 12:44:42;;;;;;;8.38;1.48;;;;;;;19.82;40.41;102014.34;16130678;19;129523;-62
2022/10/07 12:50:13;;;;;;;8.10;1.60;;;;;;;19.82;40.53;102000.44;16131989;19;129440;-62
2022/10/07 12:55:38;;;;;;;9.10;1.50;;;;;;;19.81;40.54;101994.06;16133714;19;130392;-62
2022/10/07 13:01:21;;;;;;;7.40;1.37;;;;;;;19.81;40.42;101985.72;16127021;19;129333;-62
2022/10/07 13:06:56;;;;;;;7.65;1.38;;;;;;;19.81;40.42;101969.06;16131699;19;129895;-61
2022/10/07 13:12:33;;;;;;;6.65;1.30;;;;;;;19.81;40.65;101971.00;16129421;19;130023;-62
2022/10/07 13:18:18;;;;;;;8.13;1.23;;;;;;;19.80;40.29;101961.81;16129658;19;130117;-62
2022/10/07 13:23:48;;;;;;;7.15;1.20;;;;;;;19.79;40.68;101948.19;16126881;19;129238;-62
2022/10/07 13:29:22;;;;;;;4.70;1.58;;;;;;;19.80;40.46;101953.47;16129727;19;129447;-62
2022/10/07 13:34:45;;;;;;;4.93;1.27;;;;;;;19.77;40.27;101928.94;16130081;19;129609;-62
2022/10/07 13:40:34;;;;;;;5.97;1.13;;;;;;;19.79;40.27;101932.34;16130869;19;130775;-61
2022/10/07 13:45:57;;;;;;;6.47;1.65;;;;;;;19.78;40.66;101924.25;16128762;19;129137;-61
2022/10/07 13:51:40;;;;;;;7.22;1.60;;;;;;;19.78;40.01;101919.53;16126644;19;129528;-61
2022/10/07 13:57:02;;;;;;;8.18;1.50;;;;;;;19.78;39.94;101918.72;16127651;19;129474;-61
2022/10/07 14:02:23;;;;;;;8.32;1.25;;;;;;;19.77;39.51;101911.44;16127290;19;129381;-62
2022/10/07 14:07:52;;;;;;;7.00;1.50;;;;;;;19.77;39.39;101911.44;16127133;19;130014;-61
2022/10/07 14:13:15;;;;;;;6.20;1.45;;;;;;;19.78;38.97;101907.59;16126125;19;129418;-61
2022/10/07 14:18:42;;;;;;;9.25;1.45;;;;;;;19.78;38.93;101905.66;16126919;19;129551;-61
2022/10/07 14:24:08;;;;;;;6.45;1.23;;;;;;;19.79;38.41;101887.09;16124304;19;129123;-61
2022/10/07 14:29:36;;;;;;;7.15;1.33;;;;;;;19.78;38.21;101879.84;16125273;19;130563;-61
2022/10/07 14:35:19;;;;;;;8.20;1.50;;;;;;;19.77;38.31;101862.31;16124794;19;133069;-62
2022/10/07 14:40:41;;;;;;;8.25;1.48;;;;;;;19.78;38.51;101874.28;16121517;19;129565;-62
2022/10/07 14:46:10;;;;;;;11.25;1.75;;;;;;;19.80;37.93;101855.47;16122857;19;129431;-61
2022/10/07 14:51:32;;;;;;;12.25;1.20;;;;;;;19.79;38.18;101853.78;16126657;19;129319;-62
2022/10/07 14:56:53;;;;;;;10.35;1.60;;;;;;;19.78;38.04;101846.53;16126723;19;130097;-62
2022/10/07 15:02:16;;;;;;;9.65;2.05;;;;;;;19.76;37.81;101838.41;16122311;19;130254;-61
2022/10/07 15:07:38;;;;;;;11.20;1.80;;;;;;;19.76;37.96;101832.84;16121637;19;129781;-62
2022/10/07 15:12:59;;;;;;;9.98;1.80;;;;;;;19.73;38.79;101821.38;16122659;19;129292;-62
2022/10/07 15:18:21;;;;;;;7.78;1.70;;;;;;;19.72;39.28;101819.66;16122283;19;129897;-61
2022/10/07 15:23:43;;;;;;;9.43;2.05;;;;;;;19.68;39.50;101814.59;16121221;19;129388;-62
2022/10/07 15:29:06;;;;;;;8.50;1.70;;;;;;;19.65;39.10;101809.50;16135521;19;130542;-62
2022/10/07 15:34:29;;;;;;;5.60;1.50;;;;;;;19.63;38.93;101805.28;16136395;19;129567;-61
2022/10/07 15:39:51;;;;;;;7.50;1.45;;;;;;;19.61;39.58;101813.81;16134498;19;129875;-62
2022/10/07 15:45:13;;;;;;;6.53;1.92;;;;;;;19.61;39.24;101796.31;16134377;19;129772;-60
2022/10/07 15:50:35;;;;;;;7.63;1.90;;;;;;;19.60;39.42;101791.84;16133480;19;129415;-61
2022/10/07 15:55:57;;;;;;;7.70;1.73;;;;;;;19.59;39.81;101796.53;16134161;19;129883;-61
2022/10/07 16:01:19;;;;;;;8.10;1.60;;;;;;;19.56;39.63;101794.25;16133161;19;129713;-61
2022/10/07 16:06:48;;;;;;;7.78;1.65;;;;;;;19.55;39.89;101787.00;16135517;19;129492;-61
2022/10/07 16:12:10;;;;;;;5.43;1.75;;;;;;;19.53;40.19;101789.97;16131556;19;129511;-61
2022/10/07 16:17:31;;;;;;;7.85;1.40;;;;;;;19.51;40.10;101780.19;16133203;19;129451;-61
2022/10/07 16:22:53;;;;;;;12.10;2.00;;;;;;;19.50;40.03;101793.25;16132775;19;130230;-60
2022/10/07 16:33:55;;;;;;;14.40;2.03;;;;;;;19.50;40.66;101793.25;16133232;19;130053;-60
2022/10/07 16:39:18;;;;;;;16.45;2.95;;;;;;;19.53;41.27;101789.16;16131636;19;129334;-59
2022/10/07 16:44:39;;;;;;;14.45;2.60;;;;;;;19.55;41.33;101792.56;16129082;19;129613;-60
2022/10/07 16:50:01;;;;;;;24.58;2.42;;;;;;;19.52;41.16;101782.72;16130839;19;129656;-60
2022/10/07 16:55:27;;;;;;;12.07;2.08;;;;;;;19.53;41.21;101794.72;16131734;19;130833;-62
2022/10/07 17:00:49;;;;;;;20.90;2.85;;;;;;;19.53;41.29;101795.53;16128796;19;130089;-58
2022/10/07 17:06:16;;;;;;;16.30;2.47;;;;;;;19.55;41.13;101791.69;16128688;19;130741;-59
2022/10/07 17:11:38;;;;;;;26.77;2.97;;;;;;;19.56;40.89;101788.69;16129246;19;130540;-59
2022/10/07 17:17:00;;;;;;;28.55;2.60;;;;;;;19.58;40.82;101785.69;16127702;19;129997;-60
2022/10/07 17:22:22;;;;;;;32.75;2.97;;;;;;;19.57;41.12;101789.53;16127780;19;130364;-60
2022/10/07 17:27:43;;;;;;;18.35;2.40;;;;;;;19.55;41.29;101787.00;16123441;19;129217;-60
2022/10/07 17:33:06;;;;;;;21.17;2.65;;;;;;;19.53;41.43;101789.16;16127961;19;129837;-60
2022/10/07 17:38:32;;;;;;;21.27;3.60;;;;;;;19.51;41.43;101792.13;16130353;19;129503;-61
2022/10/07 17:43:56;;;;;;;21.23;2.10;;;;;;;19.49;41.18;101791.53;16128933;19;129208;-61
2022/10/07 17:49:17;;;;;;;22.23;2.45;;;;;;;19.46;41.40;101786.44;16126410;19;129528;-61
2022/10/07 17:54:39;;;;;;;20.17;2.10;;;;;;;19.44;41.59;101796.09;16121071;19;130266;-59
2022/10/07 18:00:04;;;;;;;8.48;1.55;;;;;;;19.43;41.88;101788.84;16120116;19;130053;-57
2022/10/07 18:05:26;;;;;;;11.85;1.67;;;;;;;19.44;42.12;101782.22;16122417;19;130559;-61
2022/10/07 18:10:49;;;;;;;7.75;1.67;;;;;;;19.45;42.05;101781.13;16123624;19;129387;-57
2022/10/07 18:16:12;;;;;;;7.43;1.52;;;;;;;19.47;42.22;101781.72;16122824;19;130029;-57
2022/10/07 18:21:35;;;;;;;4.90;1.10;;;;;;;19.47;42.16;101778.97;16121065;19;129704;-54
2022/10/07 18:26:58;;;;;;;7.53;1.45;;;;;;;19.49;42.24;101776.81;16121845;19;129851;-58
2022/10/07 18:32:21;;;;;;;7.63;1.45;;;;;;;19.48;42.65;101775.97;16117154;19;129573;-63
2022/10/07 18:37:44;;;;;;;11.05;1.65;;;;;;;19.51;42.78;101774.66;16119862;19;129128;-60
2022/10/07 18:43:06;;;;;;;17.40;2.00;;;;;;;19.51;42.80;101778.25;16119577;19;130277;-60
2022/10/07 18:48:29;;;;;;;9.18;1.48;;;;;;;19.53;42.99;101775.28;16118326;19;130141;-59
2022/10/07 18:53:51;;;;;;;15.13;1.77;;;;;;;19.54;42.71;101774.19;16119461;19;129330;-60
2022/10/07 18:59:13;;;;;;;13.52;2.28;;;;;;;19.56;42.99;101777.59;16101845;19;134024;-60
2022/10/07 19:04:35;;;;;;;10.23;1.90;;;;;;;19.56;42.64;101777.59;16104814;19;130289;-59
2022/10/07 19:09:57;;;;;;;15.82;1.92;;;;;;;19.55;42.50;101770.34;16119228;19;130391;-59
2022/10/07 19:15:18;;;;;;;7.25;1.40;;;;;;;19.53;42.80;101761.41;16119094;19;129156;-59
2022/10/07 19:20:41;;;;;;;8.32;1.20;;;;;;;19.52;42.78;101762.47;16120855;19;129822;-60
2022/10/07 19:26:02;;;;;;;8.02;1.70;;;;;;;19.49;42.74;101762.94;16120026;19;129708;-59
2022/10/07 19:31:34;;;;;;;16.05;2.20;;;;;;;19.49;42.64;101757.38;16114672;19;129690;-59
2022/10/07 19:36:56;;;;;;;8.05;1.02;;;;;;;19.47;42.70;101751.22;16115706;19;130451;-59
2022/10/07 19:42:17;;;;;;;9.98;1.33;;;;;;;19.46;43.03;101749.50;16114743;19;130483;-59
2022/10/07 19:47:39;;;;;;;8.43;1.20;;;;;;;19.45;43.18;101743.13;16116545;19;129783;-59
2022/10/07 19:53:03;;;;;;;16.13;1.50;;;;;;;19.44;43.43;101752.53;16116735;19;130557;-59
2022/10/07 19:58:25;;;;;;;14.98;1.27;;;;;;;19.55;43.82;101753.69;16114363;19;128939;-56
2022/10/07 20:03:48;;;;;;;9.80;0.95;;;;;;;19.71;43.16;101759.66;16112453;19;129861;-58
2022/10/07 20:09:13;;;;;;;10.75;1.13;;;;;;;19.82;43.25;101756.09;16111207;19;130133;-59
2022/10/07 20:14:34;;;;;;;7.03;1.17;;;;;;;19.85;43.47;101747.31;16129379;19;129644;-58
2022/10/07 20:19:56;;;;;;;10.80;1.10;;;;;;;19.87;43.51;101741.53;16131444;19;129711;-60
2022/10/07 20:25:18;;;;;;;7.15;1.02;;;;;;;19.87;43.92;101745.16;16130443;19;133686;-59
2022/10/07 20:30:39;;;;;;;11.93;1.20;;;;;;;19.87;43.73;101750.69;16127513;19;129385;-59
2022/10/07 20:36:02;;;;;;;7.53;1.20;;;;;;;19.86;44.09;101748.16;16124463;19;131398;-58
2022/10/07 20:47:06;;;;;;;6.03;1.02;;;;;;;19.91;43.98;101737.19;16122896;19;130457;-57
2022/10/07 20:52:31;;;;;;;4.32;0.98;;;;;;;19.90;44.28;101739.13;16126226;19;129349;-59
2022/10/07 20:57:53;;;;;;;5.22;1.20;;;;;;;19.86;44.27;101743.44;16126924;19;130565;-59
2022/10/07 21:03:17;;;;;;;7.45;1.23;;;;;;;19.83;44.34;101738.34;16129710;19;129951;-59
2022/10/07 21:08:38;;;;;;;5.32;0.90;;;;;;;19.80;44.53;101736.06;16128092;19;131154;-59
2022/10/07 21:14:00;;;;;;;8.13;1.27;;;;;;;19.77;44.11;101730.97;16129320;19;129533;-59
2022/10/07 21:19:22;;;;;;;7.57;0.98;;;;;;;19.73;44.19;101726.97;16128002;19;130655;-59
2022/10/07 21:24:44;;;;;;;7.45;0.98;;;;;;;19.68;44.53;101739.66;16123816;19;129954;-59
2022/10/07 21:30:07;;;;;;;6.40;0.80;;;;;;;19.67;44.39;101721.28;16127482;19;129651;-60
2022/10/07 21:35:30;;;;;;;3.17;0.80;;;;;;;19.67;44.58;101726.84;16126698;19;129832;-60
2022/10/07 21:40:52;;;;;;;3.78;0.82;;;;;;;19.66;44.11;101715.97;16124651;19;129632;-60
2022/10/07 21:46:14;;;;;;;4.22;0.80;;;;;;;19.62;44.26;101706.41;16122650;19;129857;-60
2022/10/07 21:51:36;;;;;;;3.85;0.90;;;;;;;19.60;44.44;101720.50;16125738;19;129744;-60
2022/10/07 21:56:58;;;;;;;3.25;1.02;;;;;;;19.57;43.99;101707.09;16127195;19;131015;-60
2022/10/07 22:02:20;;;;;;;2.45;0.63;;;;;;;19.56;44.24;101705.44;16122908;19;129375;-60
2022/10/07 22:13:22;;;;;;;2.55;0.50;;;;;;;19.51;44.17;101702.50;16123467;19;130281;-59
2022/10/07 22:18:48;;;;;;;2.60;0.60;;;;;;;19.49;44.12;101699.09;16122860;19;129375;-60
2022/10/07 22:24:10;;;;;;;1.85;0.95;;;;;;;19.48;44.53;101702.97;16120203;19;130576;-59
2022/10/07 22:29:31;;;;;;;2.33;0.60;;;;;;;19.47;44.53;101701.25;16118798;19;129465;-59
2022/10/07 22:40:37;;;;;;;3.45;1.13;;;;;;;19.43;44.50;101695.34;16123325;19;130613;-63
2022/10/07 22:45:58;;;;;;;;;;;;;;;19.37;44.64;101688.78;16121726;19;129191;-71
2022/10/07 22:51:21;;;;;;;2.55;0.80;;;;;;;19.40;44.29;101679.13;16120890;19;129277;-68
2022/10/07 22:56:44;;;;;;;2.13;0.60;;;;;;;19.38;44.54;101690.50;16119597;19;129197;-71
2022/10/07 23:02:08;;;;;;;2.83;0.60;;;;;;;19.35;44.51;101673.47;16116212;19;129520;-65
2022/10/07 23:07:31;;;;;;;1.65;0.63;;;;;;;19.37;44.54;101683.25;16121579;19;130010;-59
2022/10/07 23:12:52;;;;;;;2.25;0.60;;;;;;;19.37;44.22;101679.63;16121125;19;129310;-59
2022/10/07 23:18:14;;;;;;;1.45;0.60;;;;;;;19.35;44.55;101665.97;16121549;19;129635;-59
2022/10/07 23:23:37;;;;;;;2.05;0.68;;;;;;;19.34;44.61;101653.19;16123515;19;129622;-59
2022/10/07 23:29:00;;;;;;;1.95;0.60;;;;;;;19.33;44.32;101645.94;16119066;19;129551;-59
2022/10/07 23:34:21;;;;;;;3.40;0.63;;;;;;;19.32;44.29;101641.47;16116194;19;129411;-59
2022/10/07 23:39:43;;;;;;;0.82;0.57;;;;;;;19.31;44.35;101631.47;16119297;19;129470;-59
2022/10/07 23:45:05;;;;;;;1.20;0.60;;;;;;;19.31;44.23;101631.47;16117599;19;129347;-60
2022/10/07 23:50:27;;;;;;;1.30;0.50;;;;;;;19.30;44.46;101618.69;16131789;19;129303;-59
2022/10/07 23:55:51;;;;;;;5.43;0.63;;;;;;;19.30;44.15;101624.22;16132808;19;128915;-59
